• Join FlightAware (Why Join?)
  • Login
  • US Flag 
05:56PM EDT


 

Airport Tracker/Info


-or-


 

Live Flight TrackerFlight Track Log ✈ XOJ552 ✈ 27-Aug-2013 ✈ KSFO - KHVN

Flight Track Log - Related Links

Times and Time Zones

All times are in EDT time to prevent confusion due to time zone crossing. See the XOJ552 flight status page for this flight to view local times or setup timezone preferences in your user account.

Time Position Orientation Groundspeed Altitude Reporting Facility
EDT Latitude Longitude Course Direction KTS MPH feet Rate Location/Type
07:53PM 37.6500 -122.3333 70° East 220 253 2,200  Level Northern Cal TRACON
07:54PM 37.7000 -122.2833 38° Northeast 251 289 5,100 3,300 Climbing Northern Cal TRACON
07:55PM 37.7333 -122.1833 67° East 286 329 8,900 2,820 Climbing Northern Cal TRACON
07:57PM 37.7967 -121.9781 69° East 341 392 14,100 1,920 Climbing Oakland Center
07:58PM 37.7004 -122.1151 70° East  Level FlightAware Approximate
07:58PM 37.8328 -121.8536 70° East 375 432 14,900  Level Oakland Center
07:59PM 37.8794 -121.6942 70° East 402 463 15,000 840 Climbing Oakland Center
08:00PM 37.9164 -121.5669 70° East 389 448 16,700 1,980 Climbing Oakland Center
08:01PM 37.9472 -121.4556 71° East 383 441 19,100 2,520 Climbing Oakland Center
08:02PM 37.9914 -121.3022 70° East 388 447 21,900 2,340 Climbing Oakland Center
08:03PM 38.0281 -121.1681 71° East 402 463 23,900 1,920 Climbing Oakland Center
08:04PM 38.0675 -121.0292 70° East 418 481 25,900 1,920 Climbing Oakland Center
08:05PM 38.0958 -120.8842 76° East 424 488 27,900 1,680 Climbing Oakland Center
08:06PM 38.1217 -120.7353 78° East 434 499 29,400 1,440 Climbing Oakland Center
08:07PM 38.1489 -120.5786 77° East 453 521 30,900 1,200 Climbing Oakland Center
08:08PM 38.1781 -120.4158 77° East 471 542 31,900 1,020 Climbing Oakland Center
08:09PM 38.2114 -120.2125 78° East 492 566 33,100 1,080 Climbing Oakland Center
08:10PM 38.2431 -120.0372 77° East 507 583 34,100 1,020 Climbing Oakland Center
08:11PM 38.2731 -119.8606 78° East 512 589 35,200 1,260 Climbing Oakland Center
08:12PM 38.3019 -119.6864 78° East 505 581 36,700 1,380 Climbing Oakland Center
08:13PM 38.3303 -119.5153 78° East 496 571 38,100 1,320 Climbing Oakland Center
08:14PM 38.3600 -119.3336 78° East 487 560 39,500 1,020 Climbing Oakland Center
08:15PM 38.3869 -119.1672 78° East 483 556 40,200 540 Climbing Oakland Center
08:16PM 38.4164 -118.9986 77° East 490 564 40,700 360 Climbing Oakland Center
08:17PM 38.4742 -118.8361 66° East 507 583 41,000 120 Climbing Oakland Center
08:18PM 38.5347 -118.6725 65° Northeast 512 589 41,000  Level Oakland Center
08:19PM 38.5975 -118.5039 64° Northeast 523 602 41,000 -60 Level Oakland Center
08:20PM 38.6614 -118.3333 64° Northeast 533 613 40,900  Descending Oakland Center
08:21PM 38.7344 -118.1358 65° Northeast 516 594 41,000  Climbing Oakland Center
08:22PM 38.7925 -117.9747 65° Northeast 504 580 41,000  Level Oakland Center
08:23PM 38.8536 -117.8069 65° Northeast 516 594 41,000  Level Oakland Center
08:24PM 38.9150 -117.6397 65° Northeast 520 598 41,000  Level Oakland Center
08:25PM 38.9747 -117.4722 65° Northeast 519 597 41,000  Level Oakland Center
08:26PM 39.0344 -117.3044 65° Northeast 518 596 41,000  Level Oakland Center
08:27PM 39.0944 -117.1383 65° Northeast 515 593 41,000  Level Oakland Center
08:28PM 39.1556 -116.9628 66° East 517 595 41,000  Level Oakland Center
08:29PM 39.2214 -116.7764 65° Northeast 515 593 41,000  Level Oakland Center
08:30PM 39.2772 -116.6139 66° East 517 595 41,000  Level Oakland Center
08:31PM 39.3339 -116.4508 66° East 520 598 41,000  Level Oakland Center
08:32PM 39.3989 -116.2611 66° East 520 598 41,000  Level Oakland Center
08:33PM 39.4553 -116.0969 66° East 522 601 41,000  Level Oakland Center
08:35PM 39.5394 -115.8494 66° East 521 600 41,000  Level Salt Lake Center
08:36PM 39.5947 -115.6858 66° East 521 600 41,000  Level Salt Lake Center
08:37PM 39.6583 -115.4939 67° East 520 598 41,000  Level Salt Lake Center
08:38PM 39.7147 -115.3311 66° East 520 598 41,000  Level Salt Lake Center
08:39PM 39.7778 -115.1419 67° East 513 590 41,000  Level Salt Lake Center
08:40PM 39.8308 -114.9794 67° East 511 588 41,000  Level Salt Lake Center
08:41PM 39.8858 -114.8183 66° East 510 587 41,000  Level Salt Lake Center
08:42PM 39.9408 -114.6489 67° East 505 581 41,000  Level Salt Lake Center
08:43PM 39.9933 -114.4825 68° East 500 575 41,000  Level Salt Lake Center
08:44PM 40.0575 -114.2844 67° East 496 571 41,000  Level Salt Lake Center
08:45PM 40.1094 -114.1175 68° East 498 573 41,000  Level Salt Lake Center
08:46PM 40.1631 -113.9539 67° East 492 566 41,000  Level Salt Lake Center
08:47PM 40.2147 -113.7892 68° East 491 565 41,000  Level Salt Lake Center
08:48PM 40.2656 -113.6247 68° East 490 564 41,000  Level Salt Lake Center
08:49PM 40.3167 -113.4614 68° East 486 559 41,000  Level Salt Lake Center
08:50PM 40.3678 -113.2969 68° East 488 562 41,000  Level Salt Lake Center
08:51PM 40.4297 -113.0978 68° East 493 567 41,000  Level Salt Lake Center
08:52PM 40.4808 -112.9333 68° East 491 565 41,000  Level Salt Lake Center
08:53PM 40.5317 -112.7667 68° East 493 567 41,000  Level Salt Lake Center
08:54PM 40.5814 -112.5992 69° East 494 568 41,000  Level Salt Lake Center
08:55PM 40.6322 -112.4342 68° East 492 566 41,000  Level Salt Lake Center
08:56PM 40.6806 -112.2681 69° East 489 563 41,000  Level Salt Lake Center
08:57PM 40.7414 -112.0681 68° East 502 578 41,000  Level Salt Lake Center
08:58PM 40.7903 -111.9028 69° East 501 577 41,000  Level Salt Lake Center
09:00PM 40.8372 -111.7389 69° East 487 560 41,000  Level Salt Lake Center
09:01PM 40.8839 -111.5764 69° East 478 550 41,000  Level Salt Lake Center
09:02PM 40.9317 -111.4119 69° East 485 558 41,000  Level Salt Lake Center
09:03PM 40.9886 -111.2158 69° East 480 552 41,000  Level Salt Lake Center
09:04PM 41.0353 -111.0497 70° East 482 555 41,000  Level Salt Lake Center
09:05PM 41.0822 -110.8831 69° East 484 557 41,000  Level Salt Lake Center
09:06PM 41.1322 -110.7056 69° East 482 555 41,000  Level Salt Lake Center
09:07PM 41.1753 -110.5464 70° East 480 552 41,000  Level Salt Lake Center
09:08PM 41.2203 -110.3861 69° East 481 554 41,000  Level Salt Lake Center
09:09PM 41.2719 -110.1981 70° East 486 559 41,000  Level Salt Lake Center
09:10PM 41.3167 -110.0361 70° East 487 560 41,000  Level Salt Lake Center
09:11PM 41.3678 -109.8489 70° East 484 557 41,000  Level Salt Lake Center
09:12PM 41.4119 -109.6878 70° East 485 558 41,000  Level Salt Lake Center
09:13PM 41.4553 -109.5264 70° East 483 556 41,000  Level Salt Lake Center
09:14PM 41.5067 -109.3381 70° East 481 554 41,000  Level Salt Lake Center
09:15PM 41.5536 -109.1731 69° East 485 558 41,000  Level Salt Lake Center
09:16PM 41.5922 -109.0017 73° East 490 564 41,000  Level Salt Lake Center
09:17PM 41.6069 -108.8042 84° East 476 548 41,000  Level Salt Lake Center
09:18PM 41.6200 -108.6364 84° East 473 544 41,000  Level Salt Lake Center
09:19PM 41.6339 -108.4392 85° East 477 549 41,000  Level Salt Lake Center
09:20PM 41.6458 -108.2692 85° East 478 550 41,000  Level Salt Lake Center
09:21PM 41.6575 -108.1011 85° East 476 548 41,000  Level Salt Lake Center
09:22PM 41.6728 -107.9069 84° East 470 541 41,000  Level Salt Lake Center
09:23PM 41.6781 -107.8217 85° East 469 540 41,000  Level Denver Center
09:24PM 41.6917 -107.6283 85° East 467 537 41,000  Level Denver Center
09:25PM 41.7019 -107.4633 85° East 467 537 41,000  Level Denver Center
09:26PM 41.7156 -107.2708 85° East 466 536 41,000  Level Denver Center
09:27PM 41.7244 -107.1031 86° East 471 542 41,000  Level Denver Center
09:28PM 41.7364 -106.9389 84° East 466 536 41,000  Level Denver Center
09:29PM 41.7461 -106.7442 86° East 471 542 41,000  Level Denver Center
09:30PM 41.7533 -106.6053 86° East 471 542 41,000  Level Denver Center
09:31PM 41.7658 -106.3975 85° East 472 543 41,000  Level Denver Center
09:32PM 41.7767 -106.2039 86° East 469 540 41,000  Level Denver Center
09:33PM 41.7861 -106.0392 86° East 467 537 41,000  Level Denver Center
09:34PM 41.7964 -105.8467 86° East 464 534 41,000  Level Denver Center
09:35PM 41.8056 -105.6828 86° East 463 533 41,000  Level Denver Center
09:36PM 41.8133 -105.5164 86° East 467 537 41,000  Level Denver Center
09:37PM 41.8231 -105.3222 86° East 468 539 41,000  Level Denver Center
09:38PM 41.8325 -105.0989 87° East 472 543 41,000  Level Denver Center
09:39PM 41.8397 -104.9311 87° East 472 543 41,000  Level Denver Center
09:40PM 41.8475 -104.7364 87° East 473 544 41,000  Level Denver Center
09:41PM 41.8542 -104.5742 87° East 464 534 41,000  Level Denver Center
09:42PM 41.8600 -104.4094 87° East 466 536 41,000  Level Denver Center
09:43PM 41.8672 -104.2175 87° East 464 534 41,000  Level Denver Center
09:44PM 41.8736 -104.0536 87° East 462 532 41,000  Level Denver Center
09:45PM 41.8808 -103.8600 87° East 466 536 41,000  Level Denver Center
09:46PM 41.8858 -103.6958 88° East 464 534 41,000  Level Denver Center
09:47PM 41.8933 -103.5025 87° East 465 535 41,000  Level Denver Center
09:49PM 41.9142 -103.3375 80° East 468 539 41,000  Level Denver Center
09:50PM 41.9414 -103.1447 79° East 473 544 41,000  Level Denver Center
09:51PM 41.9636 -102.9811 80° East 468 539 41,000  Level Denver Center
09:52PM 41.9856 -102.8206 80° East 459 528 41,000  Level Denver Center
09:53PM 42.0106 -102.6314 80° East 460 529 41,000  Level Denver Center
09:54PM 42.0333 -102.4717 79° East 457 526 41,000  Level Denver Center
09:55PM 42.0575 -102.2842 80° East 456 525 41,000  Level Denver Center
09:56PM 42.0792 -102.1250 80° East 457 526 41,000  Level Denver Center
09:57PM 42.0989 -101.9661 80° East 453 521 41,000  Level Denver Center
09:58PM 42.1231 -101.7792 80° East 453 521 41,000  Level Denver Center
09:59PM 42.1428 -101.6178 81° East 455 524 41,000  Level Denver Center
10:00PM 42.1672 -101.4267 80° East 460 529 41,000  Level Denver Center
10:01PM 42.1875 -101.2644 80° East 459 528 41,000  Level Denver Center
10:02PM 42.2067 -101.1022 81° East 459 528 41,000  Level Denver Center
10:03PM 42.2283 -100.9131 81° East 457 526 41,000  Level Denver Center
10:04PM 42.2481 -100.7517 81° East 455 524 41,000  Level Denver Center
10:05PM 42.2703 -100.5603 81° East 460 529 41,000  Level Denver Center
10:06PM 42.2892 -100.3975 81° East 460 529 41,000  Level Denver Center
10:07PM 42.3047 -100.2589 81° East 461 531 41,000  Level Minneapolis Center
10:08PM 42.3228 -100.0906 82° East 457 526 41,000  Level Minneapolis Center
10:09PM 42.3464 -99.8822 81° East 457 526 41,000  Level Denver Center
10:10PM 42.3717 -99.6933 80° East 456 525 41,000  Level Denver Center
10:11PM 42.3903 -99.5483 80° East 457 526 41,000  Level Minneapolis Center
10:12PM 42.4108 -99.3786 81° East 457 526 41,000  Level Minneapolis Center
10:13PM 42.4325 -99.2094 80° East 456 525 41,000  Level Minneapolis Center
10:14PM 42.4500 -99.0747 80° East 453 521 41,000  Level Minneapolis Center
10:15PM 42.4742 -98.8703 81° East 457 526 41,000  Level Minneapolis Center
10:16PM 42.4947 -98.6983 81° East 459 528 41,000  Level Minneapolis Center
10:17PM 42.5158 -98.5242 81° East 465 535 41,000  Level Minneapolis Center
10:18PM 42.5361 -98.3478 81° East 471 542 41,000  Level Minneapolis Center
10:19PM 42.5564 -98.1697 81° East 475 547 41,000  Level Minneapolis Center
10:20PM 42.5769 -97.9903 81° East 479 551 41,000  Level Minneapolis Center
10:21PM 42.5978 -97.8003 81° East 482 555 41,000  Level Minneapolis Center
10:22PM 42.6169 -97.6208 82° East 482 555 41,000  Level Minneapolis Center
10:23PM 42.6367 -97.4383 82° East 487 560 41,000  Level Minneapolis Center
10:24PM 42.6567 -97.2564 81° East 486 559 41,000  Level Minneapolis Center
10:25PM 42.6753 -97.0742 82° East 487 560 41,000  Level Minneapolis Center
10:26PM 42.6947 -96.8850 82° East 486 559 41,000  Level Minneapolis Center
10:27PM 42.7139 -96.7036 82° East 487 560 41,000  Level Minneapolis Center
10:28PM 42.7347 -96.4867 82° East 485 558 41,000  Level Minneapolis Center
10:29PM 42.7525 -96.3061 82° East 484 557 41,000  Level Minneapolis Center
10:30PM 42.7689 -96.1244 83° East 485 558 41,000  Level Minneapolis Center
10:31PM 42.7861 -95.9425 83° East 488 562 41,000  Level Minneapolis Center
10:32PM 42.8033 -95.7639 82° East 482 555 41,000 240 Level Minneapolis Center
10:33PM 42.8167 -95.6186 83° East 484 557 41,600 1,020 Climbing Minneapolis Center
10:34PM 42.8367 -95.4031 83° East 484 557 43,100 1,020 Climbing Minneapolis Center
10:35PM 42.8511 -95.2328 83° East 467 537 43,700 540 Climbing Minneapolis Center
10:36PM 42.8653 -95.0656 83° East 455 524 44,200 600 Climbing Minneapolis Center
10:37PM 42.8831 -94.8628 83° East 452 520 45,000 360 Climbing Minneapolis Center
10:38PM 42.8967 -94.6944 84° East 450 518 45,000  Level Minneapolis Center
10:39PM 42.9089 -94.5425 84° East 456 525 45,000  Level Minneapolis Center
10:40PM 42.9233 -94.3733 83° East 456 525 45,000  Level Minneapolis Center
10:41PM 42.9353 -94.2019 85° East 458 527 45,000  Level Minneapolis Center
10:43PM 42.9519 -93.9950 84° East 461 531 45,000  Level Minneapolis Center
10:44PM 42.9619 -93.8567 84° East 461 531 45,000  Level Minneapolis Center
10:45PM 42.9778 -93.6472 84° East 460 529 45,000  Level Minneapolis Center
10:46PM 42.9897 -93.4783 84° East 460 529 45,000  Level Minneapolis Center
10:47PM 43.0025 -93.3064 84° East 460 529 45,000  Level Minneapolis Center
10:48PM 43.0142 -93.1325 85° East 461 531 45,000  Level Minneapolis Center
10:49PM 43.0267 -92.9597 84° East 462 532 45,000  Level Minneapolis Center
10:50PM 43.0381 -92.7864 85° East 463 533 45,000  Level Minneapolis Center
10:50PM 43.0478 -92.6122 86° East 463 533 45,000  Level Chicago Center
10:52PM 43.0589 -92.4375 85° East 465 535 45,000  Level Chicago Center
10:53PM 43.0711 -92.2633 84° East 463 533 45,000  Level Chicago Center
10:54PM 43.0814 -92.0883 85° East 465 535 45,000  Level Chicago Center
10:55PM 43.0933 -91.9133 85° East 464 534 45,000  Level Chicago Center
10:56PM 43.1044 -91.7358 85° East 467 537 45,000  Level Chicago Center
10:57PM 43.1136 -91.5572 86° East 470 541 45,000  Level Chicago Center
10:58PM 43.1239 -91.3792 85° East 470 541 45,000  Level Chicago Center
10:59PM 43.1361 -91.1661 85° East 471 542 45,000  Level Chicago Center
11:00PM 43.1447 -90.9892 86° East 468 539 45,000  Level Chicago Center
11:01PM 43.1522 -90.8108 87° East 472 543 45,000  Level Chicago Center
11:02PM 43.1611 -90.6344 86° East 470 541 45,000  Level Chicago Center
11:03PM 43.1664 -90.4547 88° East 474 545 45,000  Level Chicago Center
11:04PM 43.1694 -90.2778 89° East 472 543 45,000  Level Chicago Center
11:05PM 43.1717 -90.0983 89° East 471 542 45,000  Level Chicago Center
11:06PM 43.1744 -89.9178 89° East 471 542 45,000  Level Chicago Center
11:07PM 43.1786 -89.7092 88° East 470 541 45,000  Level Chicago Center
11:08PM 43.1803 -89.5292 89° East 471 542 45,000  Level Chicago Center
11:09PM 43.1814 -89.3500 89° East 473 544 45,000  Level Chicago Center
11:10PM 43.1833 -89.1708 89° East 473 544 45,000  Level Chicago Center
11:11PM 43.1853 -88.9894 89° East 477 549 45,000  Level Chicago Center
11:12PM 43.1856 -88.8108 90° East 474 545 45,000  Level Chicago Center
11:13PM 43.1864 -88.6306 90° East 476 548 45,000  Level Chicago Center
11:14PM 43.1861 -88.4492 90° East 481 554 45,000  Level Chicago Center
11:15PM 43.1869 -88.2694 90° East 479 551 45,000  Level Chicago Center
11:16PM 43.1881 -88.0886 89° East 478 550 45,000  Level Chicago Center
11:17PM 43.1889 -87.8783 90° East 476 548 45,000  Level Chicago Center
11:18PM 43.1886 -87.6967 90° East 478 550 45,000  Level Chicago Center
11:19PM 43.1886 -87.5147 90° East 479 551 45,000  Level Chicago Center
11:20PM 43.1872 -87.3439 91° East 474 545 45,000  Level Chicago Center
11:21PM 43.1872 -87.1703 90° East 461 531 45,000  Level Chicago Center
11:22PM 43.1853 -86.9958 91° East 459 528 45,000  Level Chicago Center
11:23PM 43.1833 -86.8236 91° East 454 522 45,000  Level Chicago Center
11:24PM 43.1806 -86.6528 91° East 450 518 45,000  Level Chicago Center
11:25PM 43.1625 -86.4847 98° East 457 526 45,000  Level Chicago Center
11:26PM 43.1061 -86.3283 116° Southeast 459 528 45,000  Level Chicago Center
11:27PM 43.0464 -86.1714 117° Southeast 467 537 45,000  Level Chicago Center
11:28PM 42.9836 -85.9967 116° Southeast 486 559 45,000  Level Chicago Center
11:29PM 42.8881 -85.8403 130° Southeast 514 592 45,000  Level Chicago Center
11:30PM 42.7758 -85.7369 146° Southeast 506 582 45,000  Level Chicago Center
11:31PM 42.6647 -85.6333 146° Southeast 493 567 45,000  Level Chicago Center
11:32PM 42.5503 -85.5283 146° Southeast 495 570 45,000  Level Chicago Center
11:33PM 42.4403 -85.4264 146° Southeast 487 560 45,000  Level Chicago Center
11:34PM 42.3408 -85.3111 139° Southeast 473 544 45,000  Level Chicago Center
11:35PM 42.2517 -85.1822 133° Southeast 467 537 45,000  Level Chicago Center
11:36PM 42.1767 -85.0442 126° Southeast 461 531 45,000  Level Chicago Center
11:37PM 42.1011 -84.8983 125° Southeast 470 541 45,000  Level Chicago Center
11:38PM 42.0250 -84.7550 126° Southeast 472 543 45,000  Level Chicago Center
11:39PM 41.9344 -84.5847 126° Southeast 480 552 45,000  Level Chicago Center
11:40PM 41.8894 -84.4175 110° East 475 547 45,000  Level Chicago Center
11:41PM 41.8919 -84.2822 89° East 442 509 45,000  Level Cleveland Center
11:42PM 41.8922 -84.1456 90° East 416 479 45,000  Level Cleveland Center
11:43PM 41.8969 -83.9811 88° East 423 487 45,000  Level Cleveland Center
11:44PM 41.9019 -83.8167 88° East 434 499 45,000  Level Cleveland Center
11:45PM 41.9086 -83.6442 87° East 447 514 45,000  Level Cleveland Center
11:46PM 41.9158 -83.4489 87° East 466 536 45,000  Level Cleveland Center
11:47PM 41.9200 -83.2761 88° East 466 536 45,000  Level Cleveland Center
11:48PM 41.9219 -83.0947 89° East 473 544 45,000  Level Cleveland Center
11:49PM 41.9278 -82.9192 87° East 473 544 45,000  Level Cleveland Center
11:50PM 41.9333 -82.7436 88° East 473 544 45,000  Level Cleveland Center
11:51PM 41.9364 -82.5678 89° East 473 544 45,000  Level Cleveland Center
11:52PM 41.9372 -82.3947 90° East 473 544 45,000  Level Cleveland Center
11:53PM 41.9419 -82.2189 88° East 468 539 45,000  Level Cleveland Center
11:54PM 41.9506 -82.0517 86° East 463 533 45,000  Level Cleveland Center
11:55PM 41.9506 -81.8786 90° East 453 521 45,000  Level Cleveland Center
11:56PM 41.9544 -81.7028 88° East 462 532 45,000  Level Cleveland Center
11:57PM 41.9561 -81.5269 89° East 462 532 45,000  Level Cleveland Center
11:58PM 41.9575 -81.3539 89° East 462 532 45,000  Level Cleveland Center
11:59PM 41.9583 -81.1833 90° East 462 532 45,000  Level Cleveland Center
12:00AM 41.9592 -81.0300 90° East 456 525 45,000  Level Cleveland Center
12:01AM 41.9617 -80.8511 89° East 461 531 45,000  Level Cleveland Center
12:02AM 41.9619 -80.6808 90° East 456 525 45,000  Level Cleveland Center
12:03AM 41.9619 -80.5078 90° East 461 531 45,000  Level Cleveland Center
12:04AM 41.9617 -80.3375 90° East 455 524 45,000  Level Cleveland Center
12:05AM 41.9633 -80.1614 89° East 461 531 45,000  Level Cleveland Center
12:06AM 41.9625 -79.9717 90° East 461 531 45,000  Level Cleveland Center
12:07AM 41.9636 -79.7956 89° East 461 531 45,000  Level Cleveland Center
12:08AM 41.9622 -79.6197 91° East 461 531 45,000  Level Cleveland Center
12:09AM 41.9606 -79.4383 91° East 466 536 45,000  Level Cleveland Center
12:10AM 41.9567 -79.2597 92° East 471 542 45,000  Level Cleveland Center
12:11AM 41.9567 -79.0950 90° East 482 555 45,000  Level Cleveland Center
12:12AM 41.9542 -78.9164 91° East 482 555 45,000  Level Cleveland Center
12:13AM 41.9514 -78.7350 91° East 476 548 45,000  Level Cleveland Center
12:14AM 41.9506 -78.5561 90° East 476 548 45,000  Level Cleveland Center
12:15AM 41.9472 -78.3803 91° East 476 548 45,000  Level Cleveland Center
12:17AM 41.9406 -78.0736 92° East 483 556 45,000  Level New York Center
12:18AM 41.9369 -77.8947 91° East 483 556 45,000  Level New York Center
12:19AM 41.9308 -77.7156 93° East 483 556 45,000  Level New York Center
12:20AM 41.9286 -77.5369 91° East 483 556 45,000  Level New York Center
12:21AM 41.9239 -77.3581 92° East 483 556 45,000  Level New York Center
12:22AM 41.9194 -77.1764 92° East 483 556 45,000  Level New York Center
12:23AM 41.9142 -76.9975 92° East 483 556 45,000 -300 Level New York Center
12:24AM 41.9111 -76.8186 91° East 478 550 44,500 -1,560 Descending New York Center
12:26AM 41.9006 -76.3733 92° East 497 572 39,700 -1,980 Descending Boston Center
12:27AM 41.8922 -76.1886 93° East 497 572 37,700 -2,040 Descending Boston Center
12:28AM 41.8858 -76.0014 93° East 497 572 35,700 -2,040 Descending Boston Center
12:29AM 41.8769 -75.8114 94° East 497 572 33,700 -1,800 Descending Boston Center
12:30AM 41.8736 -75.6467 92° East 497 572 32,100 -1,860 Descending Boston Center
12:31AM 41.8642 -75.4592 94° East 502 578 30,000 -2,100 Descending Boston Center
12:32AM 41.8564 -75.2750 93° East 502 578 28,000 -2,040 Descending Boston Center
12:33AM 41.8503 -75.0906 92° East 497 572 26,000 -2,040 Descending Boston Center
12:34AM 41.8419 -74.9175 94° East 483 556 24,000 -1,980 Descending Boston Center
12:35AM 41.8181 -74.7550 101° East 459 528 22,000 -2,040 Descending Boston Center
12:36AM 41.7836 -74.6006 107° East 441 507 20,000 -2,160 Descending Boston Center
12:37AM 41.7472 -74.4353 106° East 429 494 17,800 -2,040 Descending Boston Center
12:38AM 41.7142 -74.2839 106° East 423 487 16,000 -1,920 Descending Boston Center
12:39AM 41.6831 -74.1442 107° East 408 470 14,100 -1,800 Descending Boston Center
12:40AM 41.6539 -74.0100 106° East 384 442 12,400 -1,560 Descending Boston Center
12:41AM 41.6264 -73.8869 107° East 360 414 11,000 -1,440 Descending Boston Center
12:42AM 41.6000 -73.7833 109° East 310 357 9,600 -1,440 Descending New York TRACON
12:43AM 41.5833 -73.6667 101° East 307 353 8,300 -1,260 Descending New York TRACON
12:44AM 41.5333 -73.5833 129° Southeast 301 346 7,100 -1,260 Descending New York TRACON
12:45AM 41.4667 -73.5167 143° Southeast 283 326 5,800 -1,200 Descending New York TRACON
12:46AM 41.4167 -73.4333 129° Southeast 285 328 4,700 -900 Descending New York TRACON
12:47AM 41.3667 -73.3500 129° Southeast 290 334 4,000 -360 Descending New York TRACON
12:48AM 41.3000 -73.2833 143° Southeast 284 327 4,000 -120 Level New York TRACON
12:49AM 41.2500 -73.2000 129° Southeast 281 323 3,800 -960 Descending New York TRACON
12:50AM 41.2000 -73.1333 135° Southeast 269 310 2,000 -900 Descending New York TRACON
12:51AM 41.1500 -73.0667 135° Southeast 228 262 2,000  Level New York TRACON
12:52AM 41.1000 -73.0167 143° Southeast 222 255 2,000 -300 Level New York TRACON
12:53AM 41.1000 -72.9500 90° East 192 221 1,500 -300 Descending New York TRACON
12:54AM 41.1333 -72.9000 48° Northeast 186 214 1,500  Level New York TRACON
12:55AM 41.1833 -72.9000 360° North 178 205 1,500  Level New York TRACON